createdAt,value
2018-03-31T00:01:55.098Z,99.90
2018-03-31T00:04:22.073Z,99.80
2018-03-31T00:06:49.031Z,99.90
2018-03-31T00:09:15.987Z,99.90
2018-03-31T00:11:43.046Z,99.90
2018-03-31T00:14:09.998Z,99.90
2018-03-31T00:16:36.974Z,99.90
2018-03-31T00:19:04.022Z,99.90
2018-03-31T00:21:30.973Z,99.90
2018-03-31T00:23:57.943Z,99.90
2018-03-31T00:26:25.002Z,99.90
2018-03-31T00:28:52.059Z,99.90
2018-03-31T00:31:19.026Z,99.90
2018-03-31T00:33:45.998Z,99.90
2018-03-31T00:36:12.966Z,99.90
2018-03-31T00:38:39.994Z,99.90
2018-03-31T00:41:06.971Z,99.90
2018-03-31T00:43:34.690Z,99.90
2018-03-31T00:46:01.690Z,99.90
2018-03-31T00:48:28.662Z,99.90
2018-03-31T00:50:55.620Z,99.90
2018-03-31T00:53:22.572Z,99.90
2018-03-31T00:55:49.618Z,99.90
2018-03-31T00:58:16.678Z,99.90
2018-03-31T01:00:43.633Z,99.90
2018-03-31T01:03:10.611Z,99.90
2018-03-31T01:05:37.659Z,99.90
2018-03-31T01:08:04.614Z,99.90
2018-03-31T01:10:31.598Z,99.90
2018-03-31T01:12:58.633Z,99.90
2018-03-31T01:15:25.590Z,99.90
2018-03-31T01:17:52.574Z,99.90
2018-03-31T01:20:19.606Z,99.90
2018-03-31T01:22:46.671Z,99.90
2018-03-31T01:25:13.642Z,99.90
2018-03-31T01:27:40.601Z,99.90
2018-03-31T01:30:07.558Z,99.90
2018-03-31T01:32:34.529Z,99.90
2018-03-31T01:35:01.519Z,99.90
2018-03-31T01:37:28.470Z,99.90
2018-03-31T01:39:55.453Z,99.90
2018-03-31T01:42:22.435Z,99.90
2018-03-31T01:44:49.448Z,99.90
2018-03-31T01:47:17.190Z,99.90
2018-03-31T01:49:44.291Z,99.90
2018-03-31T01:52:11.291Z,99.90
2018-03-31T01:54:38.351Z,99.90
2018-03-31T01:57:05.305Z,99.90
2018-03-31T01:59:32.362Z,99.90
2018-03-31T02:01:59.330Z,99.90
2018-03-31T02:04:26.286Z,99.90
2018-03-31T02:06:53.246Z,99.90
2018-03-31T02:09:20.298Z,99.90
2018-03-31T02:11:47.258Z,99.90
2018-03-31T02:14:14.314Z,99.90
2018-03-31T02:16:41.374Z,99.90
2018-03-31T02:19:08.438Z,99.90
2018-03-31T02:21:35.398Z,99.90
2018-03-31T02:24:02.371Z,99.90
2018-03-31T02:26:29.333Z,99.90
2018-03-31T02:28:56.294Z,99.90
2018-03-31T02:31:23.266Z,99.90
2018-03-31T02:33:50.983Z,99.90
2018-03-31T02:36:17.947Z,99.90
2018-03-31T02:38:44.910Z,99.90
2018-03-31T02:41:11.873Z,99.90
2018-03-31T02:43:38.835Z,99.90
2018-03-31T02:46:05.802Z,99.90
2018-03-31T02:48:32.759Z,99.90
2018-03-31T02:50:59.719Z,99.90
2018-03-31T02:53:26.699Z,99.90
2018-03-31T02:55:53.650Z,99.90
2018-03-31T02:58:21.397Z,99.90
2018-03-31T03:00:48.375Z,99.90
2018-03-31T03:03:15.482Z,99.90
2018-03-31T03:05:42.435Z,99.90
2018-03-31T03:08:09.410Z,99.90
2018-03-31T03:10:36.364Z,99.90
2018-03-31T03:13:03.309Z,99.90
2018-03-31T03:15:30.309Z,99.90
2018-03-31T03:17:57.366Z,99.90
2018-03-31T03:20:24.323Z,99.90
2018-03-31T03:22:51.303Z,99.90
2018-03-31T03:25:18.263Z,99.90
2018-03-31T03:27:45.223Z,99.90
2018-03-31T03:30:12.190Z,99.90
2018-03-31T03:32:39.145Z,99.90
2018-03-31T03:35:06.870Z,99.90
2018-03-31T03:37:33.873Z,99.90
2018-03-31T03:40:00.826Z,99.90
2018-03-31T03:42:27.785Z,99.90
2018-03-31T03:44:54.774Z,99.90
2018-03-31T03:47:22.606Z,99.90
2018-03-31T03:49:49.569Z,99.90
2018-03-31T03:52:16.829Z,99.90
2018-03-31T03:54:43.881Z,99.90
2018-03-31T03:57:10.838Z,99.90
2018-03-31T03:59:37.908Z,99.90
2018-03-31T04:02:05.686Z,99.90
2018-03-31T04:04:32.646Z,99.90
2018-03-31T04:06:59.614Z,99.90
2018-03-31T04:09:26.574Z,99.90
2018-03-31T04:11:53.530Z,99.90
2018-03-31T04:14:20.519Z,99.90
2018-03-31T04:16:48.242Z,99.90
2018-03-31T04:19:15.198Z,99.90
2018-03-31T04:21:42.178Z,99.90
2018-03-31T04:24:09.258Z,99.90
2018-03-31T04:26:37.006Z,99.90
2018-03-31T04:29:04.058Z,99.90
2018-03-31T04:31:31.014Z,99.90
2018-03-31T04:33:57.982Z,99.90
2018-03-31T04:36:25.034Z,99.90
2018-03-31T04:38:52.057Z,99.90
2018-03-31T04:41:19.772Z,99.90
2018-03-31T04:43:46.829Z,99.90
2018-03-31T04:46:13.791Z,99.90
2018-03-31T04:48:40.745Z,99.90
2018-03-31T04:51:07.725Z,99.90
2018-03-31T04:53:34.682Z,99.90
2018-03-31T04:56:02.426Z,99.90
2018-03-31T04:58:29.406Z,99.90
2018-03-31T05:00:56.365Z,99.90
2018-03-31T05:03:23.326Z,99.90
2018-03-31T05:05:50.326Z,99.90
2018-03-31T05:08:17.325Z,99.90
2018-03-31T05:10:44.289Z,99.90
2018-03-31T05:13:11.273Z,99.90
2018-03-31T05:15:38.233Z,99.90
2018-03-31T05:18:05.185Z,99.90
2018-03-31T05:20:32.227Z,99.90
2018-03-31T05:22:59.285Z,99.90
2018-03-31T05:25:26.242Z,99.90
2018-03-31T05:27:53.214Z,99.90
2018-03-31T05:30:20.258Z,99.90
2018-03-31T05:32:47.318Z,99.90
2018-03-31T05:35:14.287Z,99.90
2018-03-31T05:37:41.241Z,99.90
2018-03-31T05:40:08.214Z,99.90
2018-03-31T05:42:35.173Z,99.90
2018-03-31T05:45:02.149Z,99.90
2018-03-31T05:47:29.985Z,99.90
2018-03-31T05:49:56.951Z,99.90
2018-03-31T05:52:23.997Z,99.90
2018-03-31T05:54:50.969Z,99.90
2018-03-31T05:57:17.946Z,99.90
2018-03-31T05:59:44.893Z,99.90
2018-03-31T06:02:12.146Z,99.90
2018-03-31T06:04:39.105Z,99.90
2018-03-31T06:07:06.085Z,99.90
2018-03-31T06:09:33.058Z,99.90
2018-03-31T06:12:00.796Z,99.90
2018-03-31T06:14:27.754Z,99.90
2018-03-31T06:16:54.730Z,99.90
2018-03-31T06:19:21.687Z,99.90
2018-03-31T06:21:48.654Z,99.90
2018-03-31T06:24:15.626Z,99.90
2018-03-31T06:26:43.374Z,99.90
2018-03-31T06:29:10.334Z,99.90
2018-03-31T06:31:37.578Z,99.90
2018-03-31T06:34:04.548Z,99.90
2018-03-31T06:36:31.502Z,99.90
2018-03-31T06:38:58.479Z,99.90
2018-03-31T06:41:25.442Z,99.90
2018-03-31T06:43:52.429Z,99.90
2018-03-31T06:46:19.435Z,99.90
2018-03-31T06:48:46.496Z,99.90
2018-03-31T06:51:13.453Z,99.90
2018-03-31T06:53:40.433Z,99.90
2018-03-31T06:56:07.396Z,99.90
2018-03-31T06:58:34.422Z,99.90
2018-03-31T07:01:01.398Z,99.90
2018-03-31T07:03:28.369Z,99.90
2018-03-31T07:05:55.397Z,99.90
2018-03-31T07:08:22.423Z,99.60
2018-03-31T07:10:49.418Z,99.00
2018-03-31T07:15:45.585Z,97.50
2018-03-31T07:18:12.549Z,97.50
2018-03-31T07:20:39.626Z,96.20
2018-03-31T07:23:06.599Z,95.80
2018-03-31T07:25:34.326Z,94.20
2018-03-31T07:28:01.367Z,94.10
2018-03-31T07:30:28.370Z,93.50
2018-03-31T07:32:55.337Z,93.10
2018-03-31T07:35:22.440Z,91.90
2018-03-31T07:37:49.811Z,92.00
2018-03-31T07:40:16.809Z,91.20
2018-03-31T07:42:43.770Z,91.00
2018-03-31T07:45:10.754Z,90.40
2018-03-31T07:47:37.710Z,90.50
2018-03-31T07:50:05.440Z,89.40
2018-03-31T07:52:32.510Z,89.00
2018-03-31T07:54:59.574Z,87.70
2018-03-31T07:57:26.594Z,88.80
2018-03-31T07:59:53.603Z,89.70
2018-03-31T08:02:20.554Z,88.10
2018-03-31T08:04:47.614Z,88.90
2018-03-31T08:07:14.739Z,87.20
2018-03-31T08:09:41.799Z,87.80
2018-03-31T08:12:08.828Z,87.50
2018-03-31T08:14:35.812Z,85.50
2018-03-31T08:17:02.775Z,82.80
2018-03-31T08:19:29.738Z,82.00
2018-03-31T08:21:56.730Z,82.50
2018-03-31T08:24:23.817Z,82.10
2018-03-31T08:26:50.853Z,82.40
2018-03-31T08:29:17.825Z,82.20
2018-03-31T08:31:44.786Z,77.80
2018-03-31T08:34:11.753Z,79.30
2018-03-31T08:36:39.497Z,77.60
2018-03-31T08:39:06.462Z,77.70
2018-03-31T08:41:33.418Z,77.40
2018-03-31T08:44:00.391Z,75.00
2018-03-31T08:46:27.495Z,74.00
2018-03-31T08:48:54.554Z,71.60
2018-03-31T08:51:22.370Z,70.20
2018-03-31T08:53:49.326Z,70.30
2018-03-31T08:56:16.304Z,69.50
2018-03-31T08:58:43.282Z,68.30
2018-03-31T09:01:10.242Z,69.00
2018-03-31T09:03:37.966Z,65.60
2018-03-31T09:06:05.047Z,65.60
2018-03-31T09:08:32.130Z,62.70
2018-03-31T09:10:59.090Z,63.50
2018-03-31T09:13:26.074Z,63.20
2018-03-31T09:15:53.799Z,66.40
2018-03-31T09:18:20.770Z,66.40
2018-03-31T09:20:47.817Z,62.40
2018-03-31T09:23:14.794Z,60.90
2018-03-31T09:25:41.753Z,60.30
2018-03-31T09:28:08.784Z,61.50
2018-03-31T09:30:35.805Z,59.50
2018-03-31T09:33:02.766Z,60.80
2018-03-31T09:35:35.554Z,60.20
2018-03-31T09:38:03.321Z,57.40
2018-03-31T09:40:31.050Z,58.00
2018-03-31T09:42:58.080Z,57.80
2018-03-31T09:45:25.070Z,57.50
2018-03-31T09:47:52.130Z,55.10
2018-03-31T09:50:19.107Z,53.30
2018-03-31T09:52:46.085Z,51.60
2018-03-31T09:55:13.806Z,45.20
2018-03-31T09:57:40.789Z,45.30
2018-03-31T10:00:07.806Z,44.60
2018-03-31T10:02:34.801Z,45.70
2018-03-31T10:05:01.858Z,44.40
2018-03-31T10:07:28.822Z,45.00
2018-03-31T10:09:55.866Z,45.40
2018-03-31T10:12:22.891Z,45.10
2018-03-31T10:14:50.610Z,45.70
2018-03-31T10:17:17.690Z,45.60
2018-03-31T10:19:44.741Z,46.90
2018-03-31T10:22:11.797Z,43.50
2018-03-31T10:24:38.758Z,41.40
2018-03-31T10:27:05.739Z,43.90
2018-03-31T10:29:32.737Z,37.10
2018-03-31T10:31:59.710Z,41.10
2018-03-31T10:34:26.665Z,41.50
2018-03-31T10:36:53.659Z,41.60
2018-03-31T10:39:20.674Z,40.00
2018-03-31T10:41:47.706Z,40.30
2018-03-31T10:44:14.640Z,38.10
2018-03-31T10:46:41.636Z,39.80
2018-03-31T10:49:08.703Z,40.80
2018-03-31T10:51:35.686Z,40.20
2018-03-31T10:54:03.687Z,40.20
2018-03-31T10:56:30.750Z,39.40
2018-03-31T10:58:57.798Z,38.30
2018-03-31T11:01:24.790Z,36.30
2018-03-31T11:03:51.754Z,36.80
2018-03-31T11:06:19.475Z,37.60
2018-03-31T11:08:46.462Z,37.50
2018-03-31T11:11:13.422Z,33.80
2018-03-31T11:13:40.457Z,35.10
2018-03-31T11:16:07.874Z,35.00
2018-03-31T11:18:35.612Z,37.90
2018-03-31T11:21:02.678Z,37.90
2018-03-31T11:23:29.730Z,33.80
2018-03-31T11:25:56.759Z,35.60
2018-03-31T11:28:23.706Z,34.80
2018-03-31T11:30:50.714Z,32.80
2018-03-31T11:33:17.676Z,32.30
2018-03-31T11:35:44.670Z,33.80
2018-03-31T11:38:12.418Z,31.20
2018-03-31T11:40:39.423Z,31.00
2018-03-31T11:43:06.410Z,34.60
2018-03-31T11:45:33.478Z,34.00
2018-03-31T11:48:00.433Z,30.60
2018-03-31T11:50:27.470Z,32.50
2018-03-31T11:52:54.554Z,34.70
2018-03-31T11:55:21.614Z,37.60
2018-03-31T11:57:48.572Z,39.60
2018-03-31T12:00:15.559Z,43.40
2018-03-31T12:02:42.600Z,42.70
2018-03-31T12:05:09.627Z,40.60
2018-03-31T12:07:36.634Z,41.60
2018-03-31T12:10:04.353Z,43.00
2018-03-31T12:12:31.314Z,43.20
2018-03-31T12:14:58.303Z,42.90
2018-03-31T12:17:25.258Z,39.00
2018-03-31T12:19:52.284Z,34.20
2018-03-31T12:22:19.281Z,35.20
2018-03-31T12:24:46.302Z,31.90
2018-03-31T12:27:13.318Z,31.40
2018-03-31T12:29:40.302Z,35.10
2018-03-31T12:32:07.483Z,33.10
2018-03-31T12:34:34.446Z,33.80
2018-03-31T12:37:01.420Z,29.70
2018-03-31T12:39:28.382Z,31.40
2018-03-31T12:41:55.362Z,36.50
2018-03-31T12:44:22.403Z,36.60
2018-03-31T12:46:49.358Z,39.90
2018-03-31T12:49:16.329Z,42.20
2018-03-31T12:51:43.471Z,45.10
2018-03-31T12:54:10.411Z,47.20
2018-03-31T12:56:37.370Z,46.10
2018-03-31T12:59:04.359Z,46.00
2018-03-31T13:01:31.388Z,49.00
2018-03-31T13:03:58.355Z,49.20
2018-03-31T13:06:25.326Z,48.60
2018-03-31T13:08:52.982Z,48.70
2018-03-31T13:11:19.943Z,43.90
2018-03-31T13:13:46.918Z,40.00
2018-03-31T13:16:13.921Z,37.30
2018-03-31T13:18:40.886Z,37.40
2018-03-31T13:21:07.910Z,33.70
2018-03-31T13:23:34.966Z,32.80
2018-03-31T13:26:02.022Z,32.10
2018-03-31T13:28:28.998Z,30.40
2018-03-31T13:30:56.213Z,33.10
2018-03-31T13:33:23.323Z,32.10
2018-03-31T13:35:50.308Z,33.70
2018-03-31T13:38:18.030Z,33.60
2018-03-31T13:40:44.993Z,33.40
2018-03-31T13:43:12.114Z,33.20
2018-03-31T13:45:39.846Z,32.70
2018-03-31T13:48:06.807Z,32.70
2018-03-31T13:50:33.785Z,30.20
2018-03-31T13:53:00.809Z,33.10
2018-03-31T13:55:27.794Z,33.40
2018-03-31T13:57:54.809Z,32.70
2018-03-31T14:00:21.762Z,32.40
2018-03-31T14:02:48.763Z,33.60
2018-03-31T14:05:15.827Z,33.10
2018-03-31T14:07:42.782Z,32.30
2018-03-31T14:10:09.759Z,33.70
2018-03-31T14:12:36.737Z,33.30
2018-03-31T14:15:04.462Z,36.60
2018-03-31T14:17:31.420Z,36.20
2018-03-31T14:19:58.398Z,36.20
2018-03-31T14:22:25.367Z,38.60
2018-03-31T14:24:52.393Z,37.80
2018-03-31T14:27:19.417Z,40.30
2018-03-31T14:29:47.298Z,43.80
2018-03-31T14:32:14.305Z,43.80
2018-03-31T14:34:41.316Z,46.40
2018-03-31T14:37:08.211Z,48.80
2018-03-31T14:39:35.174Z,51.00
2018-03-31T14:42:02.158Z,52.00
2018-03-31T14:44:29.186Z,53.00
2018-03-31T14:46:56.156Z,52.50
2018-03-31T14:49:23.138Z,53.50
2018-03-31T14:51:50.870Z,53.70
2018-03-31T14:54:17.831Z,53.60
2018-03-31T14:56:44.959Z,53.90
2018-03-31T14:59:11.976Z,54.00
2018-03-31T15:01:39.018Z,55.60
2018-03-31T15:04:06.150Z,54.90
2018-03-31T15:06:33.107Z,53.00
2018-03-31T15:09:00.158Z,53.70
2018-03-31T15:11:27.126Z,53.50
2018-03-31T15:13:54.086Z,55.70
2018-03-31T15:16:21.061Z,54.80
2018-03-31T15:18:48.139Z,55.20
2018-03-31T15:21:15.193Z,54.60
2018-03-31T15:23:42.159Z,55.30
2018-03-31T15:26:09.190Z,55.10
2018-03-31T15:28:36.233Z,55.70
2018-03-31T15:31:03.147Z,56.40
2018-03-31T15:33:30.114Z,56.70
2018-03-31T15:35:57.070Z,56.80
2018-03-31T15:38:24.814Z,56.30
2018-03-31T15:40:51.894Z,56.10
2018-03-31T15:43:18.856Z,56.70
2018-03-31T15:45:45.959Z,57.00
2018-03-31T15:48:12.924Z,57.10
2018-03-31T15:50:39.886Z,57.60
2018-03-31T15:53:06.894Z,57.30
2018-03-31T15:55:33.854Z,56.90
2018-03-31T15:58:01.609Z,57.40
2018-03-31T16:00:28.662Z,57.30
2018-03-31T16:02:55.622Z,58.10
2018-03-31T16:05:22.590Z,58.50
2018-03-31T16:07:49.582Z,57.80
2018-03-31T16:10:17.307Z,56.50
2018-03-31T16:12:44.275Z,56.40
2018-03-31T16:15:11.297Z,57.30
2018-03-31T16:17:39.011Z,57.80
2018-03-31T16:20:05.984Z,57.80
2018-03-31T16:22:32.950Z,57.90
2018-03-31T16:24:59.981Z,58.40
2018-03-31T16:27:26.944Z,57.80
2018-03-31T16:29:54.014Z,57.90
2018-03-31T16:32:20.978Z,57.90
2018-03-31T16:34:48.025Z,57.80
2018-03-31T16:37:14.982Z,57.00
2018-03-31T16:39:41.945Z,57.30
2018-03-31T16:42:08.970Z,57.30
2018-03-31T16:44:35.923Z,57.30
2018-03-31T16:47:02.922Z,57.90
2018-03-31T16:49:29.902Z,58.50
2018-03-31T16:51:56.892Z,59.30
2018-03-31T16:54:24.721Z,59.40
2018-03-31T16:56:51.697Z,59.40
2018-03-31T16:59:18.742Z,59.00
2018-03-31T17:01:45.789Z,59.90
2018-03-31T17:04:12.844Z,59.10
2018-03-31T17:06:40.531Z,59.50
2018-03-31T17:09:07.497Z,59.50
2018-03-31T17:11:34.746Z,60.20
2018-03-31T17:14:01.710Z,59.00
2018-03-31T17:16:28.710Z,59.70
2018-03-31T17:18:55.650Z,59.20
2018-03-31T17:21:23.391Z,59.80
2018-03-31T17:23:50.354Z,59.70
2018-03-31T17:26:17.334Z,59.60
2018-03-31T17:28:44.290Z,60.20
2018-03-31T17:31:11.253Z,60.70
2018-03-31T17:33:38.245Z,60.50
2018-03-31T17:36:05.246Z,61.10
2018-03-31T17:38:32.372Z,60.50
2018-03-31T17:40:59.362Z,61.40
2018-03-31T17:43:26.314Z,63.90
2018-03-31T17:45:53.275Z,65.60
2018-03-31T17:48:20.409Z,62.80
2018-03-31T17:50:48.123Z,63.80
2018-03-31T17:53:15.103Z,63.90
2018-03-31T17:55:42.154Z,65.00
2018-03-31T17:58:09.255Z,64.30
2018-03-31T18:00:36.237Z,65.50
2018-03-31T18:04:04.558Z,65.50
2018-03-31T18:06:31.517Z,64.80
2018-03-31T18:08:58.542Z,66.00
2018-03-31T18:11:25.509Z,67.00
2018-03-31T18:13:52.499Z,66.40
2018-03-31T18:16:19.567Z,66.80
2018-03-31T18:18:46.542Z,67.00
2018-03-31T18:21:13.502Z,67.00
2018-03-31T18:23:40.545Z,66.20
2018-03-31T18:26:08.454Z,67.40
2018-03-31T18:28:36.177Z,67.50
2018-03-31T18:31:03.154Z,67.50
2018-03-31T18:33:30.236Z,68.60
2018-03-31T18:35:57.202Z,69.40
2018-03-31T18:38:24.164Z,70.30
2018-03-31T18:40:51.907Z,70.70
2018-03-31T18:43:18.873Z,70.70
2018-03-31T18:45:45.834Z,72.30
2018-03-31T18:48:12.815Z,71.60
2018-03-31T18:50:40.538Z,73.40
2018-03-31T18:53:07.502Z,73.30
2018-03-31T18:55:34.483Z,72.70
2018-03-31T18:58:01.448Z,76.00
2018-03-31T19:00:28.507Z,75.20
2018-03-31T19:02:55.483Z,76.20
2018-03-31T19:05:23.231Z,76.30
2018-03-31T19:07:50.283Z,75.90
2018-03-31T19:10:17.277Z,76.60
2018-03-31T19:12:45.010Z,76.00
2018-03-31T19:15:11.970Z,75.90
2018-03-31T19:17:39.046Z,75.50
2018-03-31T19:20:06.012Z,74.60
2018-03-31T19:22:32.974Z,74.80
2018-03-31T19:25:05.506Z,75.40
2018-03-31T19:27:32.538Z,74.70
2018-03-31T19:29:59.482Z,75.00
2018-03-31T19:32:27.981Z,75.30
2018-03-31T19:34:54.942Z,75.20
2018-03-31T19:37:22.690Z,78.50
2018-03-31T19:39:50.659Z,77.40
2018-03-31T19:42:17.567Z,76.70
2018-03-31T19:44:45.294Z,79.50
2018-03-31T19:47:12.266Z,79.50
2018-03-31T19:49:39.317Z,82.30
2018-03-31T19:52:06.314Z,84.00
2018-03-31T19:54:33.325Z,85.70
2018-03-31T19:57:00.282Z,87.10
2018-03-31T19:59:27.246Z,87.90
2018-03-31T20:01:54.226Z,89.70
2018-03-31T20:04:21.266Z,90.50
2018-03-31T20:06:48.230Z,91.10
2018-03-31T20:09:15.224Z,91.80
2018-03-31T20:11:42.954Z,93.60
2018-03-31T20:14:09.917Z,93.30
2018-03-31T20:16:36.919Z,94.80
2018-03-31T20:19:04.654Z,95.20
2018-03-31T20:21:31.707Z,95.00
2018-03-31T20:23:58.683Z,95.10
2018-03-31T20:26:25.641Z,95.90
2018-03-31T20:28:52.606Z,96.60
2018-03-31T20:31:19.574Z,96.80
2018-03-31T20:33:47.297Z,97.20
2018-03-31T20:36:14.274Z,97.10
2018-03-31T20:38:41.226Z,97.60
2018-03-31T20:41:08.186Z,97.80
2018-03-31T20:43:35.185Z,98.30
2018-03-31T20:46:02.146Z,98.80
2018-03-31T20:48:29.886Z,99.20
2018-03-31T20:50:56.946Z,99.20
2018-03-31T20:53:23.970Z,99.50
2018-03-31T20:55:50.923Z,99.90
2018-03-31T20:58:18.745Z,99.60
2018-03-31T21:00:45.698Z,99.60
2018-03-31T21:03:12.676Z,99.60
2018-03-31T21:05:39.662Z,99.50
2018-03-31T21:08:07.427Z,99.30
2018-03-31T21:10:35.154Z,99.60
2018-03-31T21:13:02.228Z,99.20
2018-03-31T21:15:29.203Z,99.00
2018-03-31T21:17:56.166Z,98.70
2018-03-31T21:20:23.467Z,98.50
2018-03-31T21:22:51.298Z,98.20
2018-03-31T21:25:18.347Z,98.10
2018-03-31T21:27:45.367Z,98.20
2018-03-31T21:30:13.094Z,98.30
2018-03-31T21:32:40.194Z,98.20
2018-03-31T21:35:07.272Z,98.70
2018-03-31T21:37:34.219Z,98.60
2018-03-31T21:40:01.174Z,98.60
2018-03-31T21:42:28.914Z,98.70
2018-03-31T21:44:55.886Z,98.70
2018-03-31T21:47:22.842Z,98.30
2018-03-31T21:49:49.814Z,98.10
2018-03-31T21:52:17.647Z,98.40
2018-03-31T21:54:44.635Z,98.30
2018-03-31T21:57:11.606Z,98.70
2018-03-31T21:59:39.334Z,99.70
2018-03-31T22:02:06.346Z,99.70
2018-03-31T22:04:34.065Z,99.40
2018-03-31T22:07:01.027Z,99.30
2018-03-31T22:09:28.160Z,99.30
2018-03-31T22:11:55.981Z,99.50
2018-03-31T22:14:28.737Z,99.50
2018-03-31T22:16:55.734Z,99.80
2018-03-31T22:19:22.685Z,99.90
2018-03-31T22:21:49.661Z,99.80
2018-03-31T22:24:16.617Z,99.50
2018-03-31T22:26:43.574Z,99.20
2018-03-31T22:29:10.622Z,99.30
2018-03-31T22:31:37.677Z,99.40
2018-03-31T22:34:04.654Z,99.40
2018-03-31T22:36:31.702Z,99.20
2018-03-31T22:38:58.753Z,99.20
2018-03-31T22:41:25.780Z,99.20
2018-03-31T22:43:52.763Z,99.30
2018-03-31T22:46:19.714Z,99.40
2018-03-31T22:48:46.666Z,99.40
2018-03-31T22:51:13.650Z,99.60
2018-03-31T22:53:40.606Z,99.00
2018-03-31T22:56:07.670Z,98.90
2018-03-31T22:58:34.657Z,98.40
2018-03-31T23:01:01.610Z,98.30
2018-03-31T23:03:28.647Z,98.40
2018-03-31T23:05:55.703Z,98.60
2018-03-31T23:08:22.658Z,99.00
2018-03-31T23:10:49.610Z,99.20
2018-03-31T23:13:16.578Z,99.50
2018-03-31T23:15:43.599Z,99.50
2018-03-31T23:18:10.557Z,99.00
2018-03-31T23:20:37.526Z,98.50
2018-03-31T23:23:04.482Z,98.60
2018-03-31T23:25:31.434Z,98.70
2018-03-31T23:27:58.489Z,99.00
2018-03-31T23:30:26.368Z,98.80
2018-03-31T23:32:53.318Z,98.80
2018-03-31T23:35:21.054Z,99.10
2018-03-31T23:37:48.014Z,99.10
2018-03-31T23:40:14.970Z,99.00
2018-03-31T23:42:41.941Z,98.80
2018-03-31T23:45:08.893Z,98.50
2018-03-31T23:47:35.892Z,99.20
2018-03-31T23:50:02.871Z,99.30
2018-03-31T23:52:29.829Z,99.50
2018-03-31T23:54:56.790Z,99.60
2018-03-31T23:57:23.928Z,99.50
2018-03-31T23:59:51.646Z,99.40
